createdAt,value
2023-04-19T00:01:35.951Z,14.83
2023-04-19T00:04:04.647Z,14.82
2023-04-19T00:06:33.701Z,14.80
2023-04-19T00:09:03.925Z,14.76
2023-04-19T00:11:34.277Z,14.72
2023-04-19T00:14:03.038Z,14.72
2023-04-19T00:16:33.919Z,14.72
2023-04-19T00:19:02.592Z,14.73
2023-04-19T00:21:31.561Z,14.75
2023-04-19T00:24:00.102Z,14.77
2023-04-19T00:26:30.646Z,14.79
2023-04-19T00:28:58.900Z,14.80
2023-04-19T00:31:28.274Z,14.84
2023-04-19T00:33:58.031Z,14.86
2023-04-19T00:36:26.778Z,14.87
2023-04-19T00:38:54.939Z,14.85
2023-04-19T00:41:23.827Z,14.85
2023-04-19T00:43:54.478Z,14.82
2023-04-19T00:46:26.560Z,14.80
2023-04-19T00:48:57.165Z,14.76
2023-04-19T00:51:53.938Z,14.68
2023-04-19T00:54:40.206Z,14.65
2023-04-19T00:57:09.665Z,14.56
2023-04-19T00:59:42.557Z,14.50
2023-04-19T01:02:12.158Z,14.44
2023-04-19T01:04:40.511Z,14.39
2023-04-19T01:07:10.779Z,14.35
2023-04-19T01:09:43.035Z,14.29
2023-04-19T01:12:12.266Z,14.27
2023-04-19T01:14:42.428Z,14.21
2023-04-19T01:17:11.086Z,14.18
2023-04-19T01:19:39.903Z,14.11
2023-04-19T01:22:21.053Z,14.08
2023-04-19T01:24:53.029Z,14.02
2023-04-19T01:27:23.049Z,13.98
2023-04-19T01:30:06.895Z,13.91
2023-04-19T01:32:35.499Z,13.86
2023-04-19T01:35:04.809Z,13.79
2023-04-19T01:37:44.916Z,13.76
2023-04-19T01:40:17.465Z,13.73
2023-04-19T01:42:46.401Z,13.68
2023-04-19T01:45:14.555Z,13.64
2023-04-19T01:47:42.874Z,13.61
2023-04-19T01:50:12.484Z,13.56
2023-04-19T01:52:40.750Z,13.53
2023-04-19T01:55:10.879Z,13.50
2023-04-19T01:57:48.356Z,13.45
2023-04-19T02:00:19.378Z,13.45
2023-04-19T02:02:58.984Z,13.40
2023-04-19T02:11:38.292Z,13.25
2023-04-19T02:14:09.046Z,13.22
2023-04-19T02:16:38.779Z,13.21
2023-04-19T02:19:07.064Z,13.17
2023-04-19T02:21:36.608Z,13.12
2023-04-19T02:24:05.065Z,13.07
2023-04-19T02:26:33.918Z,13.06
2023-04-19T02:29:02.668Z,13.04
2023-04-19T02:31:33.759Z,13.02
2023-04-19T02:34:02.144Z,12.99
2023-04-19T02:36:31.249Z,12.99
2023-04-19T02:39:00.331Z,12.99
2023-04-19T02:41:28.825Z,12.98
2023-04-19T02:43:57.674Z,12.98
2023-04-19T02:46:26.004Z,12.98
2023-04-19T02:48:56.579Z,13.01
2023-04-19T02:51:24.985Z,12.99
2023-04-19T02:53:53.094Z,12.98
2023-04-19T02:56:21.990Z,13.00
2023-04-19T02:58:50.514Z,13.01
2023-04-19T03:01:20.009Z,13.02
2023-04-19T03:03:48.619Z,13.03
2023-04-19T03:06:19.830Z,13.05
2023-04-19T03:08:48.076Z,13.04
2023-04-19T03:11:17.850Z,13.05
2023-04-19T03:13:46.433Z,13.04
2023-04-19T03:16:14.621Z,13.05
2023-04-19T03:18:43.075Z,13.04
2023-04-19T03:21:11.416Z,13.05
2023-04-19T03:23:41.415Z,13.08
2023-04-19T03:26:09.660Z,13.11
2023-04-19T03:28:38.453Z,13.18
2023-04-19T03:31:06.740Z,13.22
2023-04-19T03:33:34.756Z,13.26
2023-04-19T03:36:02.858Z,13.34
2023-04-19T03:38:31.361Z,13.40
2023-04-19T03:41:03.805Z,13.43
2023-04-19T03:43:32.084Z,13.50
2023-04-19T03:46:00.248Z,13.54
2023-04-19T03:48:28.430Z,13.58
2023-04-19T03:50:56.498Z,13.61
2023-04-19T03:53:24.495Z,13.65
2023-04-19T03:55:53.152Z,13.67
2023-04-19T03:58:23.530Z,13.67
2023-04-19T04:00:52.094Z,13.72
2023-04-19T04:03:20.580Z,13.73
2023-04-19T04:05:48.679Z,13.75
2023-04-19T04:08:16.737Z,13.77
2023-04-19T04:10:44.758Z,13.79
2023-04-19T04:13:12.726Z,13.80
2023-04-19T04:15:42.461Z,13.80
2023-04-19T04:18:12.135Z,13.82
2023-04-19T04:20:40.484Z,13.83
2023-04-19T04:23:11.290Z,13.84
2023-04-19T04:25:39.365Z,13.85
2023-04-19T04:28:10.235Z,13.89
2023-04-19T04:30:38.652Z,13.91
2023-04-19T04:33:08.793Z,13.94
2023-04-19T04:35:36.992Z,13.96
2023-04-19T04:38:17.506Z,13.97
2023-04-19T04:40:53.759Z,14.02
2023-04-19T04:43:22.895Z,14.01
2023-04-19T04:45:51.454Z,14.03
2023-04-19T04:48:22.705Z,14.04
2023-04-19T04:50:50.900Z,14.04
2023-04-19T04:53:19.185Z,14.06
2023-04-19T04:55:47.679Z,14.09
2023-04-19T04:58:16.649Z,14.11
2023-04-19T05:00:45.495Z,14.11
2023-04-19T05:03:14.129Z,14.10
2023-04-19T05:05:45.242Z,14.10
2023-04-19T05:08:13.639Z,14.11
2023-04-19T05:10:41.829Z,14.10
2023-04-19T05:13:10.221Z,14.13
2023-04-19T05:15:38.298Z,14.15
2023-04-19T05:18:07.272Z,14.13
2023-04-19T05:20:35.753Z,14.14
2023-04-19T05:23:05.944Z,14.13
2023-04-19T05:25:34.134Z,14.13
2023-04-19T05:28:03.893Z,14.13
2023-04-19T05:30:31.992Z,14.16
2023-04-19T05:33:00.525Z,14.20
2023-04-19T05:35:28.710Z,14.25
2023-04-19T05:37:57.218Z,14.28
2023-04-19T05:40:26.965Z,14.31
2023-04-19T05:42:58.042Z,14.34
2023-04-19T05:45:27.117Z,14.35
2023-04-19T05:47:55.655Z,14.32
2023-04-19T05:50:23.761Z,14.34
2023-04-19T05:52:51.909Z,14.35
2023-04-19T05:55:20.243Z,14.36
2023-04-19T05:57:50.970Z,14.37
2023-04-19T06:00:19.821Z,14.41
2023-04-19T06:02:48.206Z,14.47
2023-04-19T06:05:16.786Z,14.50
2023-04-19T06:07:54.527Z,14.54
2023-04-19T06:10:25.853Z,14.60
2023-04-19T06:12:58.427Z,14.62
2023-04-19T06:15:27.767Z,14.65
2023-04-19T06:17:57.524Z,14.67
2023-04-19T06:20:27.585Z,14.68
2023-04-19T06:22:55.599Z,14.70
2023-04-19T06:25:24.190Z,14.71
2023-04-19T06:27:52.533Z,14.65
2023-04-19T06:30:22.108Z,14.66
2023-04-19T06:32:50.296Z,14.64
2023-04-19T06:35:19.627Z,14.61
2023-04-19T06:37:47.723Z,14.56
2023-04-19T06:40:15.818Z,14.54
2023-04-19T06:42:43.999Z,14.54
2023-04-19T06:45:13.184Z,14.52
2023-04-19T06:47:43.112Z,14.50
2023-04-19T06:50:13.819Z,14.48
2023-04-19T06:52:42.224Z,14.53
2023-04-19T06:55:11.294Z,14.54
2023-04-19T06:57:39.747Z,14.61
2023-04-19T07:00:10.586Z,14.66
2023-04-19T07:02:39.183Z,14.72
2023-04-19T07:05:12.975Z,14.85
2023-04-19T07:07:41.477Z,15.00
2023-04-19T07:10:11.345Z,15.11
2023-04-19T07:12:48.772Z,15.24
2023-04-19T07:15:17.564Z,15.41
2023-04-19T07:17:47.060Z,15.59
2023-04-19T07:20:17.969Z,15.76
2023-04-19T07:22:46.580Z,15.97
2023-04-19T07:25:16.564Z,16.09
2023-04-19T07:27:45.178Z,16.25
2023-04-19T07:30:13.556Z,16.29
2023-04-19T07:32:42.063Z,16.33
2023-04-19T07:35:10.954Z,16.39
2023-04-19T07:37:40.619Z,16.46
2023-04-19T07:40:10.215Z,16.55
2023-04-19T07:42:40.875Z,16.67
2023-04-19T07:45:11.512Z,16.71
2023-04-19T07:47:39.838Z,16.82
2023-04-19T07:50:10.731Z,16.98
2023-04-19T07:52:40.233Z,17.12
2023-04-19T07:55:09.601Z,17.24
2023-04-19T07:57:37.873Z,17.30
2023-04-19T08:00:07.099Z,17.43
2023-04-19T08:02:35.488Z,17.55
2023-04-19T08:05:04.140Z,17.59
2023-04-19T08:07:33.033Z,17.73
2023-04-19T08:10:02.695Z,17.78
2023-04-19T08:12:39.295Z,17.81
2023-04-19T08:15:32.931Z,17.78
2023-04-19T08:17:59.900Z,17.72
2023-04-19T08:20:29.188Z,17.63
2023-04-19T08:23:00.512Z,17.53
2023-04-19T08:25:32.164Z,17.48
2023-04-19T08:28:00.334Z,17.47
2023-04-19T08:30:37.653Z,17.51
2023-04-19T08:33:06.951Z,17.48
2023-04-19T08:35:36.931Z,17.49
2023-04-19T08:38:08.592Z,17.58
2023-04-19T08:40:49.378Z,17.66
2023-04-19T08:43:19.380Z,17.79
2023-04-19T08:45:49.561Z,17.83
2023-04-19T08:48:20.133Z,17.89
2023-04-19T08:51:04.175Z,17.95
2023-04-19T08:53:35.027Z,17.96
2023-04-19T08:56:21.095Z,17.93
2023-04-19T08:59:19.315Z,17.88
2023-04-19T09:01:48.695Z,17.75
2023-04-19T09:04:35.456Z,17.67
2023-04-19T09:07:05.146Z,17.58
2023-04-19T09:09:42.869Z,17.51
2023-04-19T09:12:19.438Z,17.51
2023-04-19T09:17:19.954Z,17.51
2023-04-19T09:19:49.253Z,17.47
2023-04-19T09:22:18.066Z,17.44
2023-04-19T09:27:27.356Z,17.37
2023-04-19T09:29:56.138Z,17.29
2023-04-19T09:32:25.271Z,17.27
2023-04-19T09:34:56.038Z,17.27
2023-04-19T09:39:56.302Z,17.43
2023-04-19T09:42:47.358Z,17.64
2023-04-19T09:45:29.236Z,17.81
2023-04-19T09:48:07.725Z,18.07
2023-04-19T09:50:50.315Z,18.30
2023-04-19T09:53:24.930Z,18.58
2023-04-19T09:56:01.539Z,18.90
2023-04-19T09:58:42.508Z,19.27
2023-04-19T10:01:20.307Z,19.62
2023-04-19T10:03:51.515Z,19.92
2023-04-19T10:08:56.000Z,20.28
2023-04-19T10:11:27.019Z,20.42
2023-04-19T10:14:01.248Z,20.53
2023-04-19T10:16:32.750Z,20.47
2023-04-19T10:19:02.433Z,20.39
2023-04-19T10:21:31.097Z,20.24
2023-04-19T10:24:00.160Z,20.13
2023-04-19T10:26:28.547Z,20.09
2023-04-19T10:28:58.861Z,20.20
2023-04-19T10:31:28.026Z,20.37
2023-04-19T10:33:57.832Z,20.52
2023-04-19T10:36:29.974Z,20.52
2023-04-19T10:38:58.097Z,20.56
2023-04-19T10:41:59.623Z,20.67
2023-04-19T10:44:29.937Z,20.83
2023-04-19T10:46:59.940Z,20.97
2023-04-19T10:49:30.050Z,21.02
2023-04-19T10:52:00.476Z,20.97
2023-04-19T10:54:34.495Z,20.91
2023-04-19T10:57:05.694Z,20.83
2023-04-19T10:59:35.923Z,20.78
2023-04-19T11:02:06.741Z,20.81
2023-04-19T11:05:14.215Z,20.86
2023-04-19T11:07:43.897Z,20.89
2023-04-19T11:10:12.976Z,20.91
2023-04-19T11:12:45.275Z,20.89
2023-04-19T11:15:14.769Z,20.88
2023-04-19T11:17:43.043Z,20.82
2023-04-19T11:20:13.601Z,20.85
2023-04-19T11:22:44.099Z,20.89
2023-04-19T11:25:14.247Z,20.91
2023-04-19T11:27:44.505Z,20.94
2023-04-19T11:30:17.504Z,20.98
2023-04-19T11:32:52.896Z,20.97
2023-04-19T11:35:23.185Z,20.99
2023-04-19T11:37:53.420Z,21.03
2023-04-19T11:40:23.846Z,21.03
2023-04-19T11:42:56.519Z,21.03
2023-04-19T11:45:35.528Z,21.05
2023-04-19T11:48:09.755Z,21.11
2023-04-19T11:50:39.839Z,21.22
2023-04-19T11:53:14.090Z,21.28
2023-04-19T11:55:47.782Z,21.26
2023-04-19T11:58:33.923Z,21.30
2023-04-19T12:01:10.169Z,21.29
2023-04-19T12:03:46.460Z,21.27
2023-04-19T12:06:16.373Z,21.29
2023-04-19T12:08:47.517Z,21.36
2023-04-19T12:13:44.596Z,21.44
2023-04-19T12:16:15.174Z,21.51
2023-04-19T12:18:45.482Z,21.53
2023-04-19T12:21:26.479Z,21.57
2023-04-19T12:23:59.125Z,21.66
2023-04-19T12:26:28.677Z,21.66
2023-04-19T12:28:57.665Z,21.79
2023-04-19T12:31:27.922Z,21.84
2023-04-19T12:33:56.389Z,21.85
2023-04-19T12:36:26.586Z,21.92
2023-04-19T12:38:54.866Z,22.03
2023-04-19T12:41:23.099Z,22.15
2023-04-19T12:43:51.501Z,22.32
2023-04-19T12:46:20.201Z,22.49
2023-04-19T12:48:50.087Z,22.64
2023-04-19T12:51:18.172Z,22.80
2023-04-19T12:53:49.684Z,22.92
2023-04-19T12:56:19.873Z,23.09
2023-04-19T12:58:48.405Z,23.23
2023-04-19T13:01:19.939Z,23.29
2023-04-19T13:03:50.376Z,23.48
2023-04-19T13:06:19.080Z,23.70
2023-04-19T13:08:47.915Z,23.70
2023-04-19T13:11:17.887Z,23.61
2023-04-19T13:13:46.600Z,23.84
2023-04-19T13:16:20.104Z,24.21
2023-04-19T13:18:51.441Z,24.61
2023-04-19T13:21:23.431Z,25.04
2023-04-19T13:23:52.129Z,25.51
2023-04-19T13:26:20.698Z,25.97
2023-04-19T13:28:48.921Z,26.44
2023-04-19T13:31:18.109Z,26.95
2023-04-19T13:33:46.995Z,27.42
2023-04-19T13:36:19.966Z,27.82
2023-04-19T13:38:50.063Z,28.22
2023-04-19T13:41:18.923Z,28.66
2023-04-19T13:43:48.713Z,29.10
2023-04-19T13:46:17.543Z,29.49
2023-04-19T13:48:46.364Z,29.78
2023-04-19T13:51:15.085Z,29.92
2023-04-19T13:53:50.225Z,30.05
2023-04-19T13:56:18.675Z,30.22
2023-04-19T13:58:47.196Z,30.35
2023-04-19T14:01:16.948Z,30.39
2023-04-19T14:03:46.746Z,30.52
2023-04-19T14:06:15.204Z,30.61
2023-04-19T14:08:49.629Z,30.73
2023-04-19T14:11:21.864Z,30.94
2023-04-19T14:13:50.648Z,31.03
2023-04-19T14:16:19.203Z,31.03
2023-04-19T14:18:47.712Z,31.01
2023-04-19T14:21:16.320Z,30.93
2023-04-19T14:23:46.105Z,30.73
2023-04-19T14:26:14.330Z,30.80
2023-04-19T14:28:45.407Z,30.96
2023-04-19T14:31:17.606Z,31.24
2023-04-19T14:33:46.552Z,31.56
2023-04-19T14:36:14.776Z,31.94
2023-04-19T14:38:43.209Z,32.08
2023-04-19T14:41:16.671Z,32.27
2023-04-19T14:43:46.521Z,32.51
2023-04-19T14:46:15.428Z,32.75
2023-04-19T14:48:44.342Z,32.91
2023-04-19T14:51:12.829Z,33.01
2023-04-19T14:53:41.496Z,33.08
2023-04-19T14:56:10.085Z,33.19
2023-04-19T14:58:40.091Z,33.42
2023-04-19T15:01:15.354Z,33.64
2023-04-19T15:03:48.893Z,33.54
2023-04-19T15:06:20.887Z,33.46
2023-04-19T15:11:41.204Z,33.48
2023-04-19T15:14:13.349Z,33.56
2023-04-19T15:19:30.003Z,33.77
2023-04-19T15:22:09.713Z,33.86
2023-04-19T15:24:38.153Z,33.89
2023-04-19T15:27:07.313Z,33.88
2023-04-19T15:29:42.274Z,33.48
2023-04-19T15:32:25.845Z,32.90
2023-04-19T15:34:54.564Z,31.92
2023-04-19T15:37:32.206Z,31.00
2023-04-19T15:40:09.798Z,30.00
2023-04-19T15:42:38.199Z,29.12
2023-04-19T15:45:12.667Z,28.88
2023-04-19T15:47:55.331Z,28.96
2023-04-19T15:53:37.093Z,30.47
2023-04-19T15:58:49.323Z,31.57
2023-04-19T16:07:05.413Z,32.97
2023-04-19T16:15:18.036Z,33.61
2023-04-19T16:21:30.274Z,34.38
2023-04-19T16:24:02.598Z,34.55
2023-04-19T16:29:21.039Z,34.55
2023-04-19T16:34:25.713Z,34.33
2023-04-19T16:36:56.042Z,34.36
2023-04-19T16:39:24.406Z,34.29
2023-04-19T16:41:52.968Z,34.30
2023-04-19T16:44:21.029Z,34.44
2023-04-19T16:47:12.002Z,34.55
2023-04-19T16:49:41.894Z,34.59
2023-04-19T16:59:03.666Z,34.29
2023-04-19T18:23:40.078Z,30.19
2023-04-19T19:23:18.224Z,19.82
2023-04-19T19:26:37.130Z,19.62
2023-04-19T19:38:57.805Z,19.10
2023-04-19T19:41:56.308Z,19.01
2023-04-19T19:44:15.888Z,18.94
2023-04-19T19:46:58.706Z,18.89
2023-04-19T19:49:42.012Z,18.83
2023-04-19T19:59:30.159Z,18.65
2023-04-19T20:02:26.615Z,18.60
2023-04-19T20:11:08.082Z,18.41
2023-04-19T20:13:37.182Z,18.39
2023-04-19T20:19:40.855Z,18.29
2023-04-19T20:45:19.200Z,17.88
2023-04-19T20:50:23.170Z,17.77
2023-04-19T21:20:23.581Z,17.19
2023-04-19T21:22:55.651Z,17.11
2023-04-19T21:25:24.246Z,17.08
2023-04-19T21:27:55.090Z,17.06
2023-04-19T22:35:02.707Z,15.52
2023-04-19T23:44:38.384Z,14.37
2023-04-19T23:47:23.505Z,14.35
2023-04-19T23:52:43.021Z,14.32
2023-04-19T23:58:21.622Z,14.27
